Time;durP1;ratioP1;P1;durP2;ratioP2;P2;SDS_P1;SDS_P2;PMS_P1;PMS_P2;Temp;Humidity;BMP_temperature;BMP_pressure;BME280_temperature;BME280_humidity;BME280_pressure;Samples;Min_cycle;Max_cycle;Signal;HPM_P1;HPM_P2
2022/04/03 00:00:10;;;;;;;7.53;6.03;;;3.40;99.90;;;;;;5033977;28;20256;-58
2022/04/03 00:02:37;;;;;;;6.67;5.97;;;3.30;99.90;;;;;;5033801;28;20679;-58
2022/04/03 00:05:04;;;;;;;6.70;6.00;;;3.30;99.90;;;;;;5033887;28;20630;-58
2022/04/03 00:07:32;;;;;;;8.23;5.97;;;3.20;99.90;;;;;;5033867;28;20581;-58
2022/04/03 00:09:59;;;;;;;6.83;6.13;;;3.20;99.90;;;;;;5033115;28;20229;-58
2022/04/03 00:12:26;;;;;;;8.13;5.97;;;3.30;99.90;;;;;;5033793;28;20226;-58
2022/04/03 00:14:53;;;;;;;6.50;5.47;;;3.20;99.90;;;;;;5033618;28;20729;-58
2022/04/03 00:17:19;;;;;;;7.40;6.13;;;3.10;99.90;;;;;;5034135;28;20202;-58
2022/04/03 00:19:46;;;;;;;7.20;6.30;;;3.10;99.90;;;;;;5032960;28;20210;-58
2022/04/03 00:22:13;;;;;;;11.50;6.47;;;3.10;99.90;;;;;;5033079;28;20233;-58
2022/04/03 00:24:41;;;;;;;7.43;6.10;;;3.20;99.90;;;;;;5032758;28;20221;-58
2022/04/03 00:27:08;;;;;;;8.20;6.57;;;3.20;99.90;;;;;;5033398;28;20501;-58
2022/04/03 00:29:35;;;;;;;7.17;6.00;;;3.20;99.90;;;;;;5033042;28;20241;-58
2022/04/03 00:32:02;;;;;;;7.33;6.47;;;3.20;99.90;;;;;;5032947;28;20288;-58
2022/04/03 00:34:29;;;;;;;8.30;6.30;;;3.20;99.90;;;;;;5032896;28;20241;-58
2022/04/03 00:36:56;;;;;;;9.00;6.13;;;3.20;99.90;;;;;;5031909;28;20211;-58
2022/04/03 00:39:22;;;;;;;7.23;6.30;;;3.20;99.90;;;;;;5032711;28;20206;-58
2022/04/03 00:41:51;;;;;;;6.60;5.77;;;3.10;99.90;;;;;;5033003;28;20309;-58
2022/04/03 00:44:19;;;;;;;8.73;6.33;;;3.10;99.90;;;;;;5032723;28;20241;-58
2022/04/03 00:46:47;;;;;;;11.97;7.07;;;3.00;99.90;;;;;;5032341;28;20210;-58
2022/04/03 00:49:15;;;;;;;6.87;5.93;;;2.80;99.90;;;;;;5032538;28;20297;-58
2022/04/03 00:51:42;;;;;;;8.30;7.20;;;2.80;99.90;;;;;;5032277;28;20252;-58
2022/04/03 00:54:08;;;;;;;7.70;6.83;;;2.80;99.90;;;;;;5032436;28;20260;-58
2022/04/03 00:56:35;;;;;;;9.83;7.23;;;2.80;99.90;;;;;;5032296;28;20297;-58
2022/04/03 00:59:03;;;;;;;9.47;7.53;;;2.80;99.90;;;;;;5032539;28;20205;-58
2022/04/03 01:01:30;;;;;;;8.53;7.00;;;2.80;99.90;;;;;;5032251;28;20313;-57
2022/04/03 01:03:57;;;;;;;9.33;6.60;;;2.80;99.90;;;;;;5032347;28;20267;-58
2022/04/03 01:06:24;;;;;;;7.87;7.07;;;2.80;99.90;;;;;;5032147;28;20218;-58
2022/04/03 01:08:50;;;;;;;7.70;6.97;;;2.80;99.90;;;;;;5032346;28;20214;-57
2022/04/03 01:11:21;;;;;;;7.83;7.00;;;2.80;99.90;;;;;;5032029;28;20709;-58
2022/04/03 01:13:49;;;;;;;7.87;7.03;;;2.90;99.90;;;;;;5032701;28;20249;-59
2022/04/03 01:16:18;;;;;;;7.77;6.70;;;3.00;99.90;;;;;;5032199;28;20203;-57
2022/04/03 01:18:45;;;;;;;8.40;7.50;;;3.00;99.90;;;;;;5032290;28;20214;-57
2022/04/03 01:21:12;;;;;;;10.73;7.60;;;3.10;99.90;;;;;;5032108;28;20229;-57
2022/04/03 01:23:39;;;;;;;9.43;7.47;;;3.20;99.90;;;;;;5032483;28;20293;-57
2022/04/03 01:26:07;;;;;;;10.63;7.87;;;3.20;99.90;;;;;;5032509;28;20206;-57
2022/04/03 01:28:34;;;;;;;8.73;7.83;;;3.20;99.90;;;;;;5032361;28;20202;-57
2022/04/03 01:31:00;;;;;;;8.90;7.60;;;3.10;99.90;;;;;;5032027;28;20234;-57
2022/04/03 01:33:27;;;;;;;12.40;8.30;;;3.20;99.90;;;;;;5032005;28;20225;-58
2022/04/03 01:35:54;;;;;;;10.33;8.00;;;3.30;99.90;;;;;;5032226;28;20206;-57
2022/04/03 01:38:20;;;;;;;11.03;7.73;;;3.40;99.90;;;;;;5032340;28;20646;-57
2022/04/03 01:40:47;;;;;;;10.87;8.47;;;3.50;99.90;;;;;;5031954;28;20234;-59
2022/04/03 01:43:15;;;;;;;8.53;7.63;;;3.60;99.90;;;;;;5031808;28;20631;-57
2022/04/03 01:45:42;;;;;;;8.80;7.90;;;3.70;99.90;;;;;;5031530;28;20206;-58
2022/04/03 01:48:10;;;;;;;9.87;7.93;;;3.70;99.90;;;;;;5031906;28;20718;-58
2022/04/03 01:50:36;;;;;;;9.23;8.20;;;3.70;99.90;;;;;;5058585;22;20701;-62
2022/04/03 01:53:03;;;;;;;9.33;8.33;;;3.70;99.90;;;;;;5034615;28;20218;-62
2022/04/03 01:55:30;;;;;;;14.47;8.57;;;3.70;99.90;;;;;;5034770;28;20296;-62
2022/04/03 01:57:57;;;;;;;10.47;7.80;;;3.70;99.90;;;;;;5035031;28;20206;-62
2022/04/03 02:00:26;;;;;;;8.33;7.43;;;3.70;99.90;;;;;;5035340;28;20205;-62
2022/04/03 02:02:53;;;;;;;9.23;7.57;;;3.70;99.90;;;;;;5034658;28;20709;-62
2022/04/03 02:05:21;;;;;;;8.67;7.73;;;3.70;99.90;;;;;;5034565;28;20618;-62
2022/04/03 02:07:48;;;;;;;8.80;7.63;;;3.80;99.90;;;;;;5034900;28;20210;-62
2022/04/03 02:10:14;;;;;;;10.70;8.40;;;3.80;99.90;;;;;;5034813;28;20206;-62
2022/04/03 02:12:42;;;;;;;10.33;7.83;;;3.90;99.90;;;;;;5035347;28;20317;-62
2022/04/03 02:15:11;;;;;;;8.97;7.67;;;4.00;99.90;;;;;;5036008;28;20260;-62
2022/04/03 02:17:40;;;;;;;12.53;8.53;;;4.10;99.90;;;;;;5035028;28;20297;-62
2022/04/03 02:20:08;;;;;;;8.97;8.03;;;4.10;99.90;;;;;;5035019;28;20280;-62
2022/04/03 02:22:35;;;;;;;8.73;7.80;;;4.10;99.90;;;;;;5034794;28;20233;-62
2022/04/03 02:25:03;;;;;;;10.37;8.17;;;4.10;99.90;;;;;;5034642;28;20637;-62
2022/04/03 02:27:30;;;;;;;9.10;7.87;;;4.10;99.90;;;;;;5034714;28;20213;-62
2022/04/03 02:29:57;;;;;;;10.43;8.13;;;4.10;99.90;;;;;;5034891;28;20218;-62
2022/04/03 02:32:25;;;;;;;9.13;8.07;;;4.10;99.90;;;;;;5034781;28;20226;-62
2022/04/03 02:34:53;;;;;;;10.67;8.80;;;4.10;99.90;;;;;;5034441;28;20210;-62
2022/04/03 02:37:20;;;;;;;10.60;8.57;;;4.00;99.90;;;;;;5034641;28;20213;-62
2022/04/03 02:39:47;;;;;;;10.20;8.67;;;4.00;99.90;;;;;;5034558;28;20308;-62
2022/04/03 02:42:14;;;;;;;10.23;8.67;;;3.90;99.90;;;;;;5034221;28;20288;-62
2022/04/03 02:44:41;;;;;;;10.27;9.00;;;3.80;99.90;;;;;;5034408;28;20210;-62
2022/04/03 02:47:08;;;;;;;11.63;8.17;;;3.90;99.90;;;;;;5034188;28;20206;-62
2022/04/03 02:49:35;;;;;;;10.87;9.00;;;3.90;99.90;;;;;;5034454;28;20206;-62
2022/04/03 02:52:04;;;;;;;11.00;9.63;;;3.90;99.90;;;;;;5034098;28;20226;-62
2022/04/03 02:54:31;;;;;;;10.07;9.00;;;3.90;99.90;;;;;;5034285;28;20264;-62
2022/04/03 02:56:57;;;;;;;11.23;9.00;;;4.00;99.90;;;;;;5034234;28;20234;-62
2022/04/03 02:59:24;;;;;;;12.03;9.90;;;4.00;99.90;;;;;;5034493;28;20637;-62
2022/04/03 03:01:51;;;;;;;11.17;9.23;;;4.00;99.90;;;;;;5034285;28;20230;-62
2022/04/03 03:04:17;;;;;;;10.43;9.23;;;4.00;99.90;;;;;;5035206;28;20549;-62
2022/04/03 03:06:44;;;;;;;10.33;9.10;;;4.10;99.90;;;;;;5035080;28;20211;-62
2022/04/03 03:09:12;;;;;;;11.20;9.87;;;4.10;99.90;;;;;;5034524;28;20202;-63
2022/04/03 03:11:39;;;;;;;12.53;9.13;;;4.10;99.90;;;;;;5034119;28;20234;-62
2022/04/03 03:14:06;;;;;;;12.53;9.13;;;3.90;99.90;;;;;;5033879;28;20207;-63
2022/04/03 03:16:32;;;;;;;11.97;9.23;;;3.70;99.90;;;;;;5033788;28;20361;-63
2022/04/03 03:18:59;;;;;;;11.73;9.70;;;3.60;99.90;;;;;;5034005;28;20263;-62
2022/04/03 03:21:26;;;;;;;11.27;9.17;;;3.60;99.90;;;;;;5033878;28;20222;-62
2022/04/03 03:23:53;;;;;;;11.87;9.30;;;3.30;99.90;;;;;;5033683;28;20209;-62
2022/04/03 03:26:22;;;;;;;12.53;9.10;;;3.30;99.90;;;;;;5033557;28;20240;-62
2022/04/03 03:28:48;;;;;;;10.50;9.00;;;3.30;99.90;;;;;;5033544;28;20259;-62
2022/04/03 03:31:15;;;;;;;10.87;8.97;;;3.20;99.90;;;;;;5033106;28;20222;-62
2022/04/03 03:33:42;;;;;;;10.70;8.40;;;3.30;99.90;;;;;;5033435;28;20230;-63
2022/04/03 03:36:09;;;;;;;11.03;8.63;;;3.30;99.90;;;;;;5033211;28;20210;-62
2022/04/03 03:38:36;;;;;;;10.20;8.30;;;3.30;99.90;;;;;;5033450;28;20681;-62
2022/04/03 03:41:03;;;;;;;12.13;8.77;;;3.30;99.90;;;;;;5033543;28;20233;-62
2022/04/03 03:43:32;;;;;;;11.67;9.20;;;3.30;99.90;;;;;;5033444;28;20753;-62
2022/04/03 03:45:59;;;;;;;9.77;8.40;;;3.30;99.90;;;;;;5033142;28;20213;-62
2022/04/03 03:48:26;;;;;;;9.63;8.63;;;3.30;99.90;;;;;;5033357;28;20209;-62
2022/04/03 03:50:53;;;;;;;10.97;9.20;;;3.30;99.90;;;;;;5032990;28;20268;-62
2022/04/03 03:53:21;;;;;;;12.37;8.63;;;3.30;99.90;;;;;;5033422;28;20586;-62
2022/04/03 03:55:49;;;;;;;11.03;8.73;;;3.20;99.90;;;;;;5033095;28;20242;-62
2022/04/03 03:58:16;;;;;;;9.53;7.90;;;3.10;99.90;;;;;;5033648;28;20234;-63
2022/04/03 04:00:44;;;;;;;10.80;8.40;;;2.90;99.90;;;;;;5032988;28;20701;-63
2022/04/03 04:03:10;;;;;;;10.57;8.63;;;3.00;99.90;;;;;;5033063;28;20635;-63
2022/04/03 04:05:37;;;;;;;10.63;8.57;;;3.10;99.90;;;;;;5032723;28;20637;-63
2022/04/03 04:08:05;;;;;;;9.47;8.47;;;3.10;99.90;;;;;;5033235;28;20206;-63
2022/04/03 04:10:31;;;;;;;9.80;8.40;;;3.00;99.90;;;;;;5032824;28;20732;-63
2022/04/03 04:12:58;;;;;;;9.20;8.03;;;3.10;99.90;;;;;;5031953;28;20226;-62
2022/04/03 04:15:25;;;;;;;8.83;7.83;;;3.00;99.90;;;;;;5032701;28;20260;-63
2022/04/03 04:17:55;;;;;;;9.90;8.37;;;3.00;99.90;;;;;;5033226;28;20214;-63
2022/04/03 04:20:23;;;;;;;12.07;8.13;;;3.00;99.90;;;;;;5033464;28;20397;-63
2022/04/03 04:22:51;;;;;;;9.57;7.87;;;3.10;99.90;;;;;;5032788;28;20227;-63
2022/04/03 04:25:19;;;;;;;8.27;7.27;;;3.00;99.90;;;;;;5032463;28;20210;-63
2022/04/03 04:27:46;;;;;;;9.53;7.17;;;2.80;99.90;;;;;;5032765;28;20202;-62
2022/04/03 04:30:14;;;;;;;8.53;7.00;;;2.80;99.90;;;;;;5032570;28;20260;-63
2022/04/03 04:32:41;;;;;;;7.60;6.80;;;2.70;99.90;;;;;;5032801;28;20249;-62
2022/04/03 04:35:10;;;;;;;8.00;6.23;;;2.60;99.90;;;;;;5032592;28;20272;-63
2022/04/03 04:37:36;;;;;;;7.87;6.90;;;2.50;99.90;;;;;;5032613;28;20240;-62
2022/04/03 04:40:05;;;;;;;8.30;5.97;;;2.50;99.90;;;;;;5032569;28;20209;-62
2022/04/03 04:42:31;;;;;;;6.80;6.10;;;2.50;99.90;;;;;;5032383;28;20249;-62
2022/04/03 04:44:58;;;;;;;8.57;6.20;;;2.60;99.90;;;;;;5032217;28;20210;-63
2022/04/03 04:47:25;;;;;;;6.63;5.93;;;2.70;99.90;;;;;;5032155;28;20237;-63
2022/04/03 04:49:52;;;;;;;8.90;6.17;;;2.80;99.90;;;;;;5032078;28;20297;-63
2022/04/03 04:52:20;;;;;;;7.23;5.60;;;2.80;99.90;;;;;;5031654;28;20238;-63
2022/04/03 04:54:47;;;;;;;7.40;5.53;;;2.60;99.90;;;;;;5031974;28;20621;-63
2022/04/03 04:57:14;;;;;;;7.07;5.53;;;2.50;99.90;;;;;;5031751;28;20633;-63
2022/04/03 04:59:40;;;;;;;7.27;6.03;;;2.40;99.90;;;;;;5032018;28;20202;-63
2022/04/03 05:02:07;;;;;;;6.97;5.93;;;2.40;99.90;;;;;;5032140;28;20225;-63
2022/04/03 05:04:34;;;;;;;9.57;7.10;;;2.50;99.90;;;;;;5032307;28;20641;-63
2022/04/03 05:07:01;;;;;;;10.50;7.07;;;2.60;99.90;;;;;;5031943;28;20297;-63
2022/04/03 05:09:31;;;;;;;9.17;6.40;;;2.60;99.90;;;;;;5032068;28;20669;-63
2022/04/03 05:11:58;;;;;;;8.60;6.13;;;2.50;99.90;;;;;;5032062;28;20233;-63
2022/04/03 05:14:25;;;;;;;7.33;5.63;;;2.40;99.90;;;;;;5031963;28;20206;-63
2022/04/03 05:16:52;;;;;;;7.27;6.07;;;2.20;99.90;;;;;;5031977;28;20550;-63
2022/04/03 05:19:18;;;;;;;6.37;5.57;;;2.10;99.90;;;;;;5032130;28;20206;-63
2022/04/03 05:21:45;;;;;;;9.20;5.93;;;2.10;99.90;;;;;;5032163;28;20608;-63
2022/04/03 05:24:12;;;;;;;12.70;8.83;;;2.20;99.90;;;;;;5031963;28;20585;-63
2022/04/03 05:26:40;;;;;;;7.63;5.90;;;2.30;99.90;;;;;;5031617;28;20213;-63
2022/04/03 05:29:07;;;;;;;6.37;5.43;;;2.40;99.90;;;;;;5032079;28;20202;-63
2022/04/03 05:31:34;;;;;;;9.87;6.23;;;2.40;99.90;;;;;;5031757;28;20241;-63
2022/04/03 05:34:01;;;;;;;7.77;5.97;;;2.50;99.90;;;;;;5031850;28;20202;-63
2022/04/03 05:36:27;;;;;;;7.87;6.37;;;2.70;99.90;;;;;;5031529;28;20215;-63
2022/04/03 05:38:54;;;;;;;8.90;5.97;;;2.80;99.90;;;;;;5031726;28;20206;-63
2022/04/03 05:41:21;;;;;;;8.03;5.60;;;3.00;99.90;;;;;;5031511;28;20301;-63
2022/04/03 05:43:49;;;;;;;7.10;5.47;;;3.20;99.90;;;;;;5031846;28;20276;-63
2022/04/03 05:46:16;;;;;;;8.40;5.47;;;3.30;99.90;;;;;;5031318;28;20210;-63
2022/04/03 05:48:42;;;;;;;8.13;6.50;;;3.50;99.90;;;;;;5031608;28;20202;-63
2022/04/03 05:51:09;;;;;;;8.50;5.70;;;3.60;99.90;;;;;;5031221;28;20721;-63
2022/04/03 05:53:36;;;;;;;6.87;5.40;;;3.80;99.90;;;;;;5031408;28;20233;-63
2022/04/03 05:56:04;;;;;;;6.13;5.50;;;4.00;99.90;;;;;;5031192;28;20207;-63
2022/04/03 05:58:31;;;;;;;8.03;5.23;;;4.20;99.90;;;;;;5031309;28;20207;-63
2022/04/03 06:00:59;;;;;;;6.40;4.97;;;4.20;99.90;;;;;;5031345;28;20714;-63
2022/04/03 06:03:26;;;;;;;5.73;4.97;;;3.90;99.90;;;;;;5031503;28;20321;-63
2022/04/03 06:05:53;;;;;;;5.77;4.80;;;3.50;99.90;;;;;;5031305;28;20213;-63
2022/04/03 06:08:19;;;;;;;5.87;4.63;;;3.40;99.90;;;;;;5031321;28;20582;-63
2022/04/03 06:10:46;;;;;;;5.27;4.60;;;3.40;99.90;;;;;;5031436;28;20233;-63
2022/04/03 06:13:13;;;;;;;6.40;4.63;;;3.70;99.90;;;;;;5031468;28;20229;-63
2022/04/03 06:15:42;;;;;;;10.30;7.30;;;4.20;99.90;;;;;;5031027;28;20264;-63
2022/04/03 06:18:11;;;;;;;5.70;4.60;;;4.60;99.90;;;;;;5031199;28;20584;-63
2022/04/03 06:20:39;;;;;;;7.23;4.63;;;4.90;99.90;;;;;;5031542;28;20203;-63
2022/04/03 06:23:12;;;;;;;7.77;4.80;;;5.30;99.90;;;;;;5031047;28;20206;-62
2022/04/03 06:25:39;;;;;;;5.63;4.73;;;6.10;99.90;;;;;;5031088;28;20301;-63
2022/04/03 06:28:06;;;;;;;5.50;4.10;;;7.00;99.90;;;;;;5031111;28;20674;-63
2022/04/03 06:30:34;;;;;;;6.63;4.50;;;7.80;99.90;;;;;;5030940;28;20225;-62
2022/04/03 06:33:00;;;;;;;4.80;3.67;;;8.50;99.90;;;;;;5031050;28;20237;-63
2022/04/03 06:35:29;;;;;;;4.63;3.53;;;9.10;99.90;;;;;;5031631;28;20608;-62
2022/04/03 06:37:56;;;;;;;3.83;3.10;;;9.10;99.90;;;;;;5034917;28;20630;-62
2022/04/03 06:40:23;;;;;;;5.20;3.43;;;8.60;99.90;;;;;;5034423;28;20743;-62
2022/04/03 06:42:51;;;;;;;6.43;3.60;;;8.10;99.90;;;;;;5034435;28;20249;-62
2022/04/03 06:45:18;;;;;;;5.80;3.60;;;8.20;99.90;;;;;;5034218;28;20624;-62
2022/04/03 06:47:45;;;;;;;3.83;3.10;;;7.70;99.90;;;;;;5034390;28;20732;-62
2022/04/03 06:50:12;;;;;;;6.93;4.50;;;6.60;99.90;;;;;;5034294;28;20632;-62
2022/04/03 06:52:40;;;;;;;4.47;3.70;;;6.30;99.90;;;;;;5034225;28;20234;-62
2022/04/03 06:55:08;;;;;;;8.20;5.97;;;6.30;99.90;;;;;;5034591;28;20210;-62
2022/04/03 06:57:35;;;;;;;4.47;3.80;;;6.20;99.90;;;;;;5033936;28;20269;-62
2022/04/03 07:00:05;;;;;;;5.00;3.80;;;5.90;99.90;;;;;;5034318;28;20214;-63
2022/04/03 07:02:32;;;;;;;5.40;3.73;;;5.30;99.90;;;;;;5034021;28;20222;-62
2022/04/03 07:04:58;;;;;;;5.50;3.77;;;5.20;99.90;;;;;;5034221;28;20210;-62
2022/04/03 07:07:26;;;;;;;5.23;3.90;;;5.50;99.90;;;;;;5034017;28;20272;-62
2022/04/03 07:09:54;;;;;;;6.67;5.20;;;5.70;99.90;;;;;;5034161;28;20210;-62
2022/04/03 07:12:21;;;;;;;8.77;5.17;;;5.90;99.90;;;;;;5033849;28;20222;-63
2022/04/03 07:14:49;;;;;;;6.20;5.07;;;6.00;99.90;;;;;;5033997;28;20630;-63
2022/04/03 07:17:16;;;;;;;8.47;4.53;;;6.00;99.90;;;;;;5033584;28;20218;-63
2022/04/03 07:19:43;;;;;;;10.33;7.37;;;6.10;99.90;;;;;;5034081;28;20210;-64
2022/04/03 07:22:09;;;;;;;5.30;3.70;;;6.20;99.90;;;;;;5033674;28;20706;-63
2022/04/03 07:24:36;;;;;;;6.63;5.90;;;6.30;99.90;;;;;;5033595;28;20616;-63
2022/04/03 07:27:04;;;;;;;8.07;5.57;;;6.50;99.90;;;;;;5033601;28;20264;-64
2022/04/03 07:29:31;;;;;;;5.60;4.60;;;6.60;99.90;;;;;;5033522;28;20202;-63
2022/04/03 07:31:58;;;;;;;5.17;3.60;;;6.80;99.90;;;;;;5033565;28;20776;-63
2022/04/03 07:34:25;;;;;;;5.93;3.70;;;7.10;99.90;;;;;;5033573;28;20661;-63
2022/04/03 07:36:51;;;;;;;3.70;2.93;;;7.40;99.90;;;;;;5033410;28;20214;-64
2022/04/03 07:39:18;;;;;;;4.63;3.17;;;7.70;99.90;;;;;;5033593;28;20210;-63
2022/04/03 07:41:45;;;;;;;4.77;3.27;;;7.90;99.90;;;;;;5033879;28;20234;-64
2022/04/03 07:44:13;;;;;;;5.33;2.90;;;8.10;99.90;;;;;;5033225;28;20670;-64
2022/04/03 07:46:41;;;;;;;4.97;3.13;;;8.30;99.90;;;;;;5033218;28;20221;-63
2022/04/03 07:49:07;;;;;;;5.33;2.77;;;8.50;99.90;;;;;;5033218;28;20208;-63
2022/04/03 07:51:34;;;;;;;4.77;3.20;;;8.60;99.80;;;;;;5033801;28;20614;-63
2022/04/03 07:54:01;;;;;;;5.10;3.00;;;8.30;99.70;;;;;;5033204;28;20234;-63
2022/04/03 07:56:28;;;;;;;4.40;3.30;;;7.90;99.90;;;;;;5033076;28;20206;-63
2022/04/03 07:58:55;;;;;;;4.53;3.13;;;7.80;99.90;;;;;;5033056;28;20257;-63
2022/04/03 08:01:23;;;;;;;4.50;3.50;;;8.00;99.90;;;;;;5033505;28;20238;-63
2022/04/03 08:03:50;;;;;;;3.80;2.80;;;8.20;99.90;;;;;;5033376;28;20203;-67
2022/04/03 08:06:17;;;;;;;5.03;3.00;;;9.00;99.90;;;;;;5032659;28;20693;-62
2022/04/03 08:08:44;;;;;;;3.47;3.10;;;9.10;98.60;;;;;;5032922;28;20264;-66
2022/04/03 08:11:10;;;;;;;3.47;3.07;;;9.60;98.50;;;;;;5032986;28;20238;-67
2022/04/03 08:13:37;;;;;;;3.20;2.90;;;9.50;97.70;;;;;;5033019;28;20318;-67
2022/04/03 08:16:04;;;;;;;31.13;25.13;;;8.90;98.00;;;;;;5032682;28;20206;-67
2022/04/03 08:18:33;;;;;;;4.23;2.80;;;8.80;99.40;;;;;;5033170;28;20213;-67
2022/04/03 08:20:59;;;;;;;4.77;2.77;;;9.00;98.30;;;;;;5033344;28;20226;-66
2022/04/03 08:23:26;;;;;;;3.33;2.80;;;9.00;98.40;;;;;;5032884;28;20240;-67
2022/04/03 08:25:53;;;;;;;3.63;3.00;;;8.90;97.90;;;;;;5032471;28;20206;-67
2022/04/03 08:28:22;;;;;;;4.53;2.63;;;8.60;97.80;;;;;;5033269;28;20237;-68
2022/04/03 08:30:49;;;;;;;4.40;2.90;;;8.30;97.80;;;;;;5033501;28;20221;-71
2022/04/03 08:33:16;;;;;;;4.00;2.50;;;7.40;99.50;;;;;;5033165;28;20226;-70
2022/04/03 08:35:45;;;;;;;3.60;3.03;;;7.10;99.90;;;;;;5033274;28;20207;-67
2022/04/03 08:38:12;;;;;;;4.47;3.47;;;7.50;99.90;;;;;;5032409;28;20241;-68
2022/04/03 08:40:39;;;;;;;3.00;2.40;;;8.20;98.10;;;;;;5032935;28;20685;-65
2022/04/03 08:43:06;;;;;;;3.03;2.50;;;8.40;97.20;;;;;;5032582;28;20241;-68
2022/04/03 08:45:34;;;;;;;2.97;2.50;;;8.10;96.50;;;;;;5031698;28;20667;-67
2022/04/03 08:48:02;;;;;;;3.63;2.40;;;7.60;97.90;;;;;;5032117;28;20579;-65
2022/04/03 08:50:31;;;;;;;4.97;3.33;;;7.50;98.00;;;;;;5031883;28;20206;-64
2022/04/03 08:53:01;;;;;;;2.67;2.20;;;7.50;98.10;;;;;;5031595;28;20287;-64
2022/04/03 08:55:29;;;;;;;3.17;2.43;;;7.50;97.10;;;;;;5031882;28;20696;-64
2022/04/03 08:57:56;;;;;;;3.93;2.90;;;6.80;97.80;;;;;;5032045;28;20266;-64
2022/04/03 09:00:23;;;;;;;4.47;2.63;;;6.30;99.80;;;;;;5032721;28;20571;-64
2022/04/03 09:02:51;;;;;;;3.03;2.63;;;6.50;99.90;;;;;;5033059;28;20223;-63
2022/04/03 09:05:18;;;;;;;3.47;2.50;;;6.30;99.60;;;;;;5032416;28;20256;-65
2022/04/03 09:07:45;;;;;;;5.70;3.10;;;6.20;99.90;;;;;;5031460;28;20547;-64
2022/04/03 09:10:16;;;;;;;3.60;2.67;;;6.20;99.90;;;;;;5032179;28;20206;-64
2022/04/03 09:12:45;;;;;;;4.07;2.50;;;6.00;99.70;;;;;;5032116;28;20637;-65
2022/04/03 09:15:14;;;;;;;2.83;2.50;;;5.80;99.30;;;;;;5032187;28;20209;-64
2022/04/03 09:17:44;;;;;;;3.50;2.23;;;5.80;99.70;;;;;;5032185;28;20543;-64
2022/04/03 09:20:13;;;;;;;3.20;2.43;;;6.00;99.50;;;;;;5031801;28;20218;-64
2022/04/03 09:22:41;;;;;;;4.83;2.90;;;6.10;99.90;;;;;;5032158;28;20241;-65
2022/04/03 09:25:10;;;;;;;5.90;2.67;;;6.40;99.90;;;;;;5031899;28;20206;-64
2022/04/03 09:27:47;;;;;;;3.67;2.77;;;6.50;98.80;;;;;;5031541;28;20234;-64
2022/04/03 09:30:15;;;;;;;4.30;2.67;;;6.60;98.80;;;;;;5031626;28;20213;-65
2022/04/03 09:32:47;;;;;;;3.80;2.40;;;6.70;98.60;;;;;;5031095;28;20233;-65
2022/04/03 09:35:13;;;;;;;3.37;2.30;;;6.80;98.50;;;;;;5031965;28;20619;-64
2022/04/03 09:37:40;;;;;;;2.97;2.30;;;7.00;97.80;;;;;;5031473;28;20202;-65
2022/04/03 09:40:08;;;;;;;2.63;1.90;;;7.10;97.10;;;;;;5031692;28;20288;-64
2022/04/03 09:42:35;;;;;;;3.97;2.45;;;7.30;95.90;;;;;;5030588;28;20551;-68
2022/04/03 09:45:04;;;;;;;3.50;2.43;;;7.60;96.00;;;;;;5031058;28;20248;-68
2022/04/03 09:47:32;;;;;;;2.47;2.07;;;7.90;95.70;;;;;;5031318;28;20210;-68
2022/04/03 09:50:00;;;;;;;3.47;2.00;;;8.10;94.50;;;;;;5031019;28;20213;-65
2022/04/03 09:52:42;;;;;;;3.70;2.20;;;8.40;94.20;;;;;;5031131;28;20260;-68
2022/04/03 09:55:15;;;;;;;4.17;2.10;;;8.60;94.30;;;;;;5031349;28;20253;-67
2022/04/03 09:57:42;;;;;;;3.33;2.20;;;8.70;94.20;;;;;;5030666;28;20253;-67
2022/04/03 10:00:11;;;;;;;2.43;2.00;;;8.80;93.70;;;;;;5031463;28;20285;-68
2022/04/03 10:02:38;;;;;;;2.37;1.70;;;9.00;92.40;;;;;;5031236;28;20237;-67
2022/04/03 10:05:07;;;;;;;3.33;2.00;;;8.90;92.20;;;;;;5031186;28;20256;-66
2022/04/03 10:07:37;;;;;;;3.17;2.27;;;9.00;91.90;;;;;;5030950;28;20633;-69
2022/04/03 10:10:05;;;;;;;2.50;1.87;;;8.90;91.30;;;;;;5031653;28;20214;-67
2022/04/03 10:12:32;;;;;;;3.33;2.13;;;8.90;91.40;;;;;;5035088;28;20277;-66
2022/04/03 10:14:59;;;;;;;2.57;2.03;;;8.90;91.10;;;;;;5035501;28;20222;-67
2022/04/03 10:17:28;;;;;;;2.27;1.90;;;8.80;91.00;;;;;;5036451;28;20625;-65
2022/04/03 10:19:54;;;;;;;2.33;1.90;;;8.70;91.00;;;;;;5036598;28;20210;-65
2022/04/03 10:22:27;;;;;;;2.30;2.10;;;8.50;90.70;;;;;;5034753;28;20284;-65
2022/04/03 10:24:57;;;;;;;3.83;2.10;;;8.50;91.70;;;;;;5035367;28;20302;-66
2022/04/03 10:27:29;;;;;;;2.00;1.80;;;8.20;90.80;;;;;;5035525;28;20210;-66
2022/04/03 10:29:57;;;;;;;3.87;2.20;;;8.00;91.50;;;;;;5034948;28;20237;-65
2022/04/03 10:32:27;;;;;;;2.40;2.17;;;7.80;91.80;;;;;;5035075;28;20229;-65
2022/04/03 10:34:58;;;;;;;4.13;2.07;;;7.60;91.30;;;;;;5034420;28;20789;-65
2022/04/03 10:37:32;;;;;;;2.83;2.20;;;7.30;91.60;;;;;;5034272;28;20214;-65
2022/04/03 10:40:05;;;;;;;4.33;2.37;;;7.40;92.80;;;;;;5034827;28;20260;-68
2022/04/03 10:42:32;;;;;;;4.13;2.30;;;7.60;92.90;;;;;;5034626;28;20234;-63
2022/04/03 10:45:18;;;;;;;3.63;2.40;;;7.80;92.80;;;;;;5034484;28;20211;-62
2022/04/03 10:47:46;;;;;;;3.50;1.90;;;8.10;92.10;;;;;;5034071;28;20301;-63
2022/04/03 10:50:14;;;;;;;2.63;2.30;;;8.30;91.50;;;;;;5034199;28;20210;-62
2022/04/03 10:52:57;;;;;;;3.50;2.00;;;8.60;91.00;;;;;;5034029;28;20245;-63
2022/04/03 10:55:28;;;;;;;4.23;2.33;;;8.90;89.70;;;;;;5034301;28;20599;-62
2022/04/03 10:57:57;;;;;;;5.50;2.10;;;9.00;89.30;;;;;;5033698;28;20256;-68
2022/04/03 11:00:40;;;;;;;3.93;2.27;;;9.30;89.70;;;;;;5033988;28;20213;-68
2022/04/03 11:03:35;;;;;;;3.17;2.40;;;9.20;88.00;;;;;;5034483;28;20276;-69
2022/04/03 11:06:28;;;;;;;3.93;2.63;;;9.10;87.40;;;;;;5033771;28;20213;-68
2022/04/03 11:09:05;;;;;;;3.20;2.10;;;8.80;88.50;;;;;;5034026;28;20249;-66
2022/04/03 11:11:40;;;;;;;4.30;2.50;;;8.30;89.00;;;;;;5034093;28;20226;-68
2022/04/03 11:14:08;;;;;;;2.90;2.13;;;8.10;89.20;;;;;;5034695;28;20226;-67
2022/04/03 11:16:55;;;;;;;2.80;2.37;;;7.90;89.20;;;;;;5033648;28;20234;-66
2022/04/03 11:19:36;;;;;;;6.63;2.10;;;7.80;86.90;;;;;;5034011;28;20214;-66
2022/04/03 11:22:05;;;;;;;3.03;2.23;;;7.80;89.70;;;;;;5033166;28;20764;-68
2022/04/03 11:24:36;;;;;;;4.10;2.17;;;7.70;90.50;;;;;;5033893;28;20266;-69
2022/04/03 11:27:04;;;;;;;3.10;1.80;;;7.70;90.00;;;;;;5033867;28;20209;-68
2022/04/03 11:29:31;;;;;;;3.87;2.07;;;7.70;90.10;;;;;;5033900;28;20622;-66
2022/04/03 11:31:58;;;;;;;3.40;2.40;;;7.70;89.70;;;;;;5033497;28;20231;-68
2022/04/03 11:34:29;;;;;;;4.43;2.30;;;7.90;89.70;;;;;;5033247;28;20606;-67
2022/04/03 11:37:00;;;;;;;3.87;3.30;;;8.40;87.30;;;;;;5033303;28;20755;-67
2022/04/03 11:39:36;;;;;;;2.43;2.10;;;8.60;88.00;;;;;;5033519;28;20206;-66
2022/04/03 11:42:08;;;;;;;4.03;2.40;;;8.70;85.10;;;;;;5033409;28;20333;-65
2022/04/03 11:44:36;;;;;;;2.53;2.00;;;8.70;84.60;;;;;;5033328;28;20213;-65
2022/04/03 11:47:04;;;;;;;4.77;1.70;;;8.90;85.20;;;;;;5032742;28;20214;-65
2022/04/03 11:49:33;;;;;;;3.53;2.40;;;9.00;85.50;;;;;;5032931;28;20216;-67
2022/04/03 11:52:05;;;;;;;3.43;2.17;;;9.00;85.00;;;;;;5032887;28;20234;-69
2022/04/03 11:54:34;;;;;;;2.03;1.77;;;9.00;84.40;;;;;;5032992;28;20300;-70
2022/04/03 11:57:02;;;;;;;5.03;2.10;;;8.80;86.10;;;;;;5033205;28;20260;-66
2022/04/03 11:59:32;;;;;;;3.83;2.20;;;8.50;83.80;;;;;;5033072;28;20214;-70
2022/04/03 12:01:59;;;;;;;4.57;2.13;;;8.40;84.80;;;;;;5032917;28;20222;-64
2022/04/03 12:04:25;;;;;;;3.27;2.10;;;8.30;84.40;;;;;;5033036;28;20580;-64
2022/04/03 12:06:58;;;;;;;4.80;3.37;;;8.20;84.10;;;;;;5032642;28;20214;-64
2022/04/03 12:09:27;;;;;;;4.37;3.00;;;8.10;81.90;;;;;;5032897;28;20210;-64
2022/04/03 12:11:56;;;;;;;4.03;2.20;;;8.40;82.30;;;;;;5033299;28;20312;-64
2022/04/03 12:14:25;;;;;;;4.33;1.90;;;9.00;80.80;;;;;;5032856;28;20267;-64
2022/04/03 12:16:58;;;;;;;4.03;2.10;;;9.20;79.10;;;;;;5032466;28;20324;-64
2022/04/03 12:19:26;;;;;;;2.77;2.13;;;9.50;78.70;;;;;;5032396;28;20296;-64
2022/04/03 12:21:56;;;;;;;2.97;2.10;;;9.70;77.80;;;;;;5033060;28;20250;-64
2022/04/03 12:24:24;;;;;;;3.60;2.50;;;9.80;77.20;;;;;;5033077;28;20225;-65
2022/04/03 12:26:54;;;;;;;2.10;1.80;;;9.80;78.00;;;;;;5032539;28;20210;-65
2022/04/03 12:29:25;;;;;;;3.57;1.90;;;9.40;78.60;;;;;;5032599;28;20289;-65
2022/04/03 12:32:03;;;;;;;2.53;1.70;;;8.90;80.60;;;;;;5032678;28;20249;-64
2022/04/03 12:34:32;;;;;;;3.77;2.30;;;8.70;81.30;;;;;;5032044;28;20226;-64
2022/04/03 12:37:01;;;;;;;3.90;2.30;;;8.90;81.80;;;;;;5032516;28;20214;-67
2022/04/03 12:39:46;;;;;;;3.23;2.30;;;9.00;80.20;;;;;;5032743;28;20206;-64
2022/04/03 12:42:24;;;;;;;5.87;2.10;;;8.90;78.70;;;;;;5032405;28;20226;-64
2022/04/03 12:44:58;;;;;;;2.90;1.83;;;9.10;78.00;;;;;;5032672;28;20671;-63
2022/04/03 12:47:37;;;;;;;2.53;2.00;;;8.70;78.20;;;;;;5032195;28;20221;-63
2022/04/03 12:50:13;;;;;;;3.03;2.20;;;8.30;81.00;;;;;;5032247;28;20210;-64
2022/04/03 12:52:42;;;;;;;3.30;2.47;;;8.10;81.80;;;;;;5031917;28;20745;-63
2022/04/03 12:55:32;;;;;;;3.93;2.30;;;7.90;82.70;;;;;;5031979;28;20303;-64
2022/04/03 13:01:06;;;;;;;3.10;2.03;;;8.00;81.00;;;;;;5031285;28;20355;-63
2022/04/03 13:03:34;;;;;;;2.50;2.00;;;8.00;80.90;;;;;;5032045;28;20688;-64